Time;durP1;ratioP1;P1;durP2;ratioP2;P2;SDS_P1;SDS_P2;PMS_P1;PMS_P2;Temp;Humidity;BMP_temperature;BMP_pressure;BME280_temperature;BME280_humidity;BME280_pressure;Samples;Min_cycle;Max_cycle;Signal;HPM_P1;HPM_P2
2021/01/28 00:01:24;;;;;;;8.68;3.72;;;;;;;;;;5054213;28;20092;-72
2021/01/28 00:03:50;;;;;;;6.15;3.05;;;;;;;;;;5053950;28;20108;-76
2021/01/28 00:06:16;;;;;;;5.57;3.50;;;;;;;;;;5054173;28;20095;-76
2021/01/28 00:08:42;;;;;;;6.55;3.45;;;;;;;;;;5054158;28;20025;-72
2021/01/28 00:11:09;;;;;;;5.82;3.38;;;;;;;;;;5050256;28;20524;-72
2021/01/28 00:13:35;;;;;;;7.57;3.67;;;;;;;;;;5033954;28;20057;-78
2021/01/28 00:16:01;;;;;;;6.55;3.20;;;;;;;;;;5032667;28;20017;-76
2021/01/28 00:18:27;;;;;;;5.60;3.22;;;;;;;;;;5033867;28;20028;-76
2021/01/28 00:20:53;;;;;;;10.82;3.38;;;;;;;;;;5033814;28;20381;-79
2021/01/28 00:23:19;;;;;;;5.43;3.10;;;;;;;;;;5034134;28;20056;-77
2021/01/28 00:25:46;;;;;;;6.43;3.53;;;;;;;;;;5047425;28;20086;-74
2021/01/28 00:28:13;;;;;;;5.75;3.15;;;;;;;;;;5049841;28;20026;-74
2021/01/28 00:30:41;;;;;;;7.35;3.45;;;;;;;;;;5033706;28;20108;-70
2021/01/28 00:33:08;;;;;;;6.82;3.13;;;;;;;;;;5035855;28;20030;-73
2021/01/28 00:35:38;;;;;;;10.20;3.58;;;;;;;;;;5036554;28;20013;-74
2021/01/28 00:38:10;;;;;;;7.25;3.53;;;;;;;;;;5033380;28;20083;-75
2021/01/28 00:40:36;;;;;;;16.25;3.45;;;;;;;;;;5044061;28;20056;-73
2021/01/28 00:43:03;;;;;;;10.10;3.08;;;;;;;;;;5052101;28;20045;-73
2021/01/28 00:45:31;;;;;;;7.78;3.17;;;;;;;;;;5053109;28;20523;-73
2021/01/28 00:47:57;;;;;;;9.65;3.72;;;;;;;;;;5053498;28;20045;-73
2021/01/28 00:50:25;;;;;;;10.88;3.25;;;;;;;;;;5053555;28;20021;-73
2021/01/28 00:52:51;;;;;;;14.95;3.35;;;;;;;;;;5052264;28;20048;-73
2021/01/28 00:55:17;;;;;;;6.22;3.08;;;;;;;;;;5053761;28;20029;-72
2021/01/28 00:57:43;;;;;;;8.73;3.50;;;;;;;;;;5053974;28;20096;-73
2021/01/28 01:00:13;;;;;;;7.40;3.47;;;;;;;;;;5053416;28;20028;-72
2021/01/28 01:02:41;;;;;;;6.85;3.20;;;;;;;;;;5053437;28;20025;-73
2021/01/28 01:05:07;;;;;;;7.53;3.25;;;;;;;;;;5052154;28;20591;-73
2021/01/28 01:07:33;;;;;;;5.70;3.40;;;;;;;;;;5053413;28;20032;-74
2021/01/28 01:09:59;;;;;;;10.05;3.47;;;;;;;;;;5052063;28;20024;-73
2021/01/28 01:12:25;;;;;;;5.78;3.15;;;;;;;;;;5052012;28;20017;-72
2021/01/28 01:14:51;;;;;;;6.15;2.97;;;;;;;;;;5052082;28;20043;-73
2021/01/28 01:17:18;;;;;;;5.95;3.17;;;;;;;;;;5051938;28;20039;-73
2021/01/28 01:19:44;;;;;;;6.03;3.03;;;;;;;;;;5053130;28;20033;-73
2021/01/28 01:22:10;;;;;;;4.80;2.90;;;;;;;;;;5053202;28;20469;-74
2021/01/28 01:24:36;;;;;;;6.95;3.60;;;;;;;;;;5053028;28;20409;-73
2021/01/28 01:27:03;;;;;;;4.95;3.08;;;;;;;;;;5053210;28;20029;-73
2021/01/28 01:29:29;;;;;;;7.05;3.78;;;;;;;;;;5052862;28;20047;-73
2021/01/28 01:31:55;;;;;;;6.18;3.25;;;;;;;;;;5052871;28;20017;-74
2021/01/28 01:34:21;;;;;;;8.38;3.67;;;;;;;;;;5051263;28;20033;-73
2021/01/28 01:36:47;;;;;;;7.43;3.55;;;;;;;;;;5051642;28;20029;-73
2021/01/28 01:39:13;;;;;;;13.48;3.47;;;;;;;;;;5052695;28;20116;-73
2021/01/28 01:41:39;;;;;;;8.93;3.38;;;;;;;;;;5052845;28;20021;-73
2021/01/28 01:44:05;;;;;;;6.18;3.42;;;;;;;;;;5052739;28;20021;-74
2021/01/28 01:46:32;;;;;;;7.28;3.63;;;;;;;;;;5051192;28;20380;-73
2021/01/28 01:49:00;;;;;;;7.43;3.55;;;;;;;;;;5051317;28;20499;-73
2021/01/28 01:51:46;;;;;;;5.97;3.33;;;;;;;;;;5051397;28;20106;-73
2021/01/28 01:54:21;;;;;;;5.78;3.13;;;;;;;;;;5050971;28;20033;-73
2021/01/28 01:57:00;;;;;;;6.15;3.20;;;;;;;;;;5052373;28;20507;-73
2021/01/28 01:59:29;;;;;;;10.60;3.33;;;;;;;;;;5052107;28;20071;-73
2021/01/28 02:02:07;;;;;;;5.35;3.00;;;;;;;;;;5052319;28;20025;-73
2021/01/28 02:04:33;;;;;;;6.82;3.38;;;;;;;;;;5050830;28;20380;-73
2021/01/28 02:07:03;;;;;;;8.13;3.50;;;;;;;;;;5050175;28;20017;-73
2021/01/28 02:09:29;;;;;;;6.05;3.28;;;;;;;;;;5051551;28;20021;-73
2021/01/28 02:11:55;;;;;;;5.50;3.15;;;;;;;;;;5050176;28;20633;-73
2021/01/28 02:14:21;;;;;;;6.50;3.42;;;;;;;;;;5051038;28;20021;-73
2021/01/28 02:16:58;;;;;;;5.43;3.20;;;;;;;;;;5049702;28;20392;-73
2021/01/28 02:19:36;;;;;;;7.63;3.35;;;;;;;;;;5050865;28;20064;-73
2021/01/28 02:22:02;;;;;;;6.40;3.00;;;;;;;;;;5051022;28;20071;-73
2021/01/28 02:24:37;;;;;;;7.15;3.20;;;;;;;;;;5051253;28;20504;-73
2021/01/28 02:27:07;;;;;;;5.55;3.05;;;;;;;;;;5051144;28;20605;-73
2021/01/28 02:29:33;;;;;;;5.13;3.00;;;;;;;;;;5051014;28;20025;-73
2021/01/28 02:32:00;;;;;;;8.13;3.75;;;;;;;;;;5051181;28;20021;-73
2021/01/28 02:34:26;;;;;;;6.47;3.20;;;;;;;;;;5049773;28;20388;-73
2021/01/28 02:36:53;;;;;;;4.72;2.97;;;;;;;;;;5051852;28;20032;-73
2021/01/28 02:39:21;;;;;;;7.07;3.47;;;;;;;;;;5051645;28;20041;-73
2021/01/28 02:41:52;;;;;;;5.68;2.97;;;;;;;;;;5051745;28;20159;-74
2021/01/28 02:44:18;;;;;;;5.07;2.75;;;;;;;;;;5051706;28;20384;-73
2021/01/28 02:46:44;;;;;;;4.88;2.63;;;;;;;;;;5051470;28;20040;-73
2021/01/28 02:49:10;;;;;;;7.07;3.20;;;;;;;;;;5051637;28;20534;-73
2021/01/28 02:51:37;;;;;;;6.25;3.25;;;;;;;;;;5051658;28;20090;-73
2021/01/28 02:54:03;;;;;;;5.10;2.65;;;;;;;;;;5050379;28;20047;-73
2021/01/28 02:56:29;;;;;;;5.13;2.67;;;;;;;;;;5051600;28;20025;-73
2021/01/28 02:58:55;;;;;;;5.65;2.70;;;;;;;;;;5051429;28;20025;-76
2021/01/28 03:01:22;;;;;;;4.88;2.80;;;;;;;;;;5051514;28;20357;-73
2021/01/28 03:03:48;;;;;;;5.95;3.05;;;;;;;;;;5050204;28;20021;-73
2021/01/28 03:06:14;;;;;;;6.05;3.00;;;;;;;;;;5050755;28;20025;-73
2021/01/28 03:08:42;;;;;;;6.20;2.97;;;;;;;;;;5057866;28;20024;-73
2021/01/28 03:11:08;;;;;;;6.22;3.08;;;;;;;;;;5058058;28;20021;-73
2021/01/28 03:13:34;;;;;;;5.55;2.90;;;;;;;;;;5057995;28;20059;-73
2021/01/28 03:16:00;;;;;;;5.45;2.70;;;;;;;;;;5058178;28;20021;-73
2021/01/28 03:18:26;;;;;;;5.70;2.65;;;;;;;;;;5056559;28;20119;-73
2021/01/28 03:20:52;;;;;;;5.30;2.78;;;;;;;;;;5058017;28;20021;-73
2021/01/28 03:23:19;;;;;;;4.65;2.85;;;;;;;;;;5057829;28;20381;-73
2021/01/28 03:25:45;;;;;;;4.93;2.90;;;;;;;;;;5057815;28;20385;-73
2021/01/28 03:28:12;;;;;;;5.47;2.97;;;;;;;;;;5057701;28;20025;-73
2021/01/28 03:30:40;;;;;;;4.80;2.70;;;;;;;;;;5056501;28;20021;-73
2021/01/28 03:33:07;;;;;;;5.57;2.60;;;;;;;;;;5057820;28;20013;-74
2021/01/28 03:35:34;;;;;;;6.15;3.10;;;;;;;;;;5057841;28;20476;-73
2021/01/28 03:38:00;;;;;;;6.63;2.83;;;;;;;;;;5057896;28;20027;-73
2021/01/28 03:40:27;;;;;;;5.25;2.50;;;;;;;;;;5057887;28;20695;-73
2021/01/28 03:42:54;;;;;;;5.10;2.90;;;;;;;;;;5057789;28;20058;-73
2021/01/28 03:45:20;;;;;;;5.97;2.67;;;;;;;;;;5057647;28;20029;-78
2021/01/28 03:47:46;;;;;;;4.97;2.67;;;;;;;;;;5057431;28;20496;-73
2021/01/28 03:50:14;;;;;;;8.15;2.80;;;;;;;;;;5057710;28;20441;-73
2021/01/28 03:52:40;;;;;;;6.15;2.65;;;;;;;;;;5057757;28;20094;-74
2021/01/28 03:55:06;;;;;;;6.70;3.60;;;;;;;;;;5057355;28;20024;-73
2021/01/28 03:57:32;;;;;;;5.78;2.70;;;;;;;;;;5055425;28;20052;-74
2021/01/28 03:59:58;;;;;;;5.82;3.28;;;;;;;;;;5058386;28;20043;-73
2021/01/28 04:02:24;;;;;;;4.90;2.70;;;;;;;;;;5058032;28;20151;-73
2021/01/28 04:04:50;;;;;;;5.68;2.47;;;;;;;;;;5055570;28;20036;-73
2021/01/28 04:07:17;;;;;;;4.82;2.67;;;;;;;;;;5055534;28;20017;-73
2021/01/28 04:09:43;;;;;;;5.65;3.33;;;;;;;;;;5056801;28;20100;-73
2021/01/28 04:12:09;;;;;;;5.55;2.75;;;;;;;;;;5057621;28;20057;-73
2021/01/28 04:14:35;;;;;;;5.78;2.90;;;;;;;;;;5057351;28;20032;-73
2021/01/28 04:17:02;;;;;;;5.05;2.97;;;;;;;;;;5057267;28;20116;-72
2021/01/28 04:19:28;;;;;;;6.43;3.22;;;;;;;;;;5053561;28;20033;-73
2021/01/28 04:21:54;;;;;;;6.38;3.00;;;;;;;;;;5054438;28;20031;-73
2021/01/28 04:24:20;;;;;;;5.68;2.92;;;;;;;;;;5054264;28;20133;-73
2021/01/28 04:26:46;;;;;;;5.88;2.90;;;;;;;;;;5054313;28;20044;-73
2021/01/28 04:29:12;;;;;;;7.60;3.47;;;;;;;;;;5052910;28;20021;-74
2021/01/28 04:31:38;;;;;;;6.00;3.10;;;;;;;;;;5054343;28;20021;-73
2021/01/28 04:34:04;;;;;;;5.63;3.03;;;;;;;;;;5054216;28;20083;-73
2021/01/28 04:36:30;;;;;;;5.15;3.05;;;;;;;;;;5052617;28;20017;-73
2021/01/28 04:38:56;;;;;;;5.20;2.83;;;;;;;;;;5052488;28;20067;-77
2021/01/28 04:41:24;;;;;;;5.05;2.78;;;;;;;;;;5054335;28;20096;-73
2021/01/28 04:43:51;;;;;;;6.53;2.92;;;;;;;;;;5052688;28;20044;-73
2021/01/28 04:46:37;;;;;;;8.07;3.47;;;;;;;;;;5053775;28;20130;-73
2021/01/28 04:49:09;;;;;;;6.30;3.30;;;;;;;;;;5052147;28;20033;-73
2021/01/28 04:51:36;;;;;;;8.65;3.10;;;;;;;;;;5052164;28;20036;-73
2021/01/28 04:54:03;;;;;;;5.30;2.92;;;;;;;;;;5052332;28;20028;-73
2021/01/28 04:56:30;;;;;;;6.72;3.10;;;;;;;;;;5053746;28;20099;-73
2021/01/28 04:59:15;;;;;;;5.20;3.08;;;;;;;;;;5052259;28;20025;-72
2021/01/28 05:01:41;;;;;;;8.15;3.10;;;;;;;;;;5053233;28;20029;-74
2021/01/28 05:04:11;;;;;;;9.90;3.53;;;;;;;;;;5052964;28;20100;-78
2021/01/28 05:06:37;;;;;;;9.30;3.80;;;;;;;;;;5051486;28;20028;-73
2021/01/28 05:09:03;;;;;;;6.88;3.00;;;;;;;;;;5053047;28;20100;-74
2021/01/28 05:11:31;;;;;;;7.50;2.92;;;;;;;;;;5053112;28;20036;-78
2021/01/28 05:14:13;;;;;;;9.25;4.00;;;;;;;;;;5053405;28;20020;-73
2021/01/28 05:16:39;;;;;;;12.23;3.40;;;;;;;;;;5051662;28;20094;-76
2021/01/28 05:19:11;;;;;;;7.85;3.20;;;;;;;;;;5052302;28;20029;-73
2021/01/28 05:21:40;;;;;;;5.25;3.08;;;;;;;;;;5053064;28;20451;-73
2021/01/28 05:24:11;;;;;;;7.32;3.70;;;;;;;;;;5053033;28;20027;-73
2021/01/28 05:26:37;;;;;;;11.80;3.17;;;;;;;;;;5052970;28;20043;-74
2021/01/28 05:29:38;;;;;;;5.88;3.08;;;;;;;;;;5051625;28;20499;-73
2021/01/28 05:32:14;;;;;;;8.52;3.00;;;;;;;;;;5030420;28;20108;-74
2021/01/28 05:34:40;;;;;;;5.53;3.20;;;;;;;;;;5050082;28;20108;-73
2021/01/28 05:37:10;;;;;;;5.45;3.20;;;;;;;;;;5052858;28;20032;-73
2021/01/28 05:39:38;;;;;;;6.10;3.30;;;;;;;;;;5051638;28;20029;-73
2021/01/28 05:42:06;;;;;;;6.65;3.55;;;;;;;;;;5052928;28;20110;-73
2021/01/28 05:44:33;;;;;;;5.40;3.17;;;;;;;;;;5052763;28;20591;-73
2021/01/28 05:47:05;;;;;;;5.38;2.80;;;;;;;;;;5052559;28;20492;-73
2021/01/28 05:49:32;;;;;;;5.80;3.63;;;;;;;;;;5051324;28;20029;-74
2021/01/28 05:52:13;;;;;;;7.20;3.53;;;;;;;;;;5052534;28;20025;-73
2021/01/28 05:54:41;;;;;;;7.70;3.58;;;;;;;;;;5052364;28;20480;-78
2021/01/28 05:57:09;;;;;;;7.97;3.13;;;;;;;;;;5052337;28;20021;-72
2021/01/28 05:59:55;;;;;;;6.32;3.22;;;;;;;;;;5051201;28;20091;-73
2021/01/28 06:02:27;;;;;;;6.80;3.40;;;;;;;;;;5040719;28;20040;-73
2021/01/28 06:05:01;;;;;;;6.28;3.45;;;;;;;;;;5052386;28;20025;-73
2021/01/28 06:07:42;;;;;;;8.23;3.53;;;;;;;;;;5052412;28;20111;-73
2021/01/28 06:10:14;;;;;;;6.22;3.50;;;;;;;;;;5050944;28;20025;-73
2021/01/28 06:12:59;;;;;;;6.18;3.63;;;;;;;;;;5051011;28;20487;-73
2021/01/28 06:15:31;;;;;;;7.35;3.72;;;;;;;;;;5052199;28;20028;-73
2021/01/28 06:18:03;;;;;;;6.03;3.60;;;;;;;;;;5050796;28;20096;-73
2021/01/28 06:20:38;;;;;;;5.85;3.33;;;;;;;;;;5050625;28;20037;-73
2021/01/28 06:23:10;;;;;;;6.10;3.80;;;;;;;;;;5051916;28;20491;-73
2021/01/28 06:25:52;;;;;;;6.22;3.53;;;;;;;;;;5051975;28;20029;-73
2021/01/28 06:28:24;;;;;;;7.35;3.85;;;;;;;;;;5050621;28;20096;-73
2021/01/28 06:31:05;;;;;;;6.75;3.67;;;;;;;;;;5051588;28;20108;-73
2021/01/28 06:33:34;;;;;;;7.10;3.72;;;;;;;;;;5051758;28;20021;-78
2021/01/28 06:36:19;;;;;;;8.15;4.03;;;;;;;;;;5051540;28;20028;-73
2021/01/28 06:38:45;;;;;;;7.32;3.70;;;;;;;;;;5050192;28;20041;-74
2021/01/28 06:41:14;;;;;;;5.90;3.50;;;;;;;;;;5049886;28;20022;-74
2021/01/28 06:44:00;;;;;;;6.60;3.40;;;;;;;;;;5051392;28;20104;-73
2021/01/28 06:46:32;;;;;;;7.55;3.67;;;;;;;;;;5051403;28;20540;-73
2021/01/28 06:49:24;;;;;;;6.85;3.88;;;;;;;;;;5051558;28;20033;-72
2021/01/28 06:52:07;;;;;;;7.97;3.57;;;;;;;;;;5048970;28;20029;-72
2021/01/28 06:54:36;;;;;;;6.28;3.85;;;;;;;;;;5050161;28;20310;-73
2021/01/28 06:57:02;;;;;;;7.75;3.95;;;;;;;;;;5051367;28;20028;-72
2021/01/28 06:59:40;;;;;;;6.78;3.92;;;;;;;;;;5051221;28;20037;-73
2021/01/28 07:02:19;;;;;;;7.78;3.92;;;;;;;;;;5051301;28;20132;-72
2021/01/28 07:05:04;;;;;;;8.25;4.20;;;;;;;;;;5051308;28;20013;-73
2021/01/28 07:07:37;;;;;;;8.75;4.07;;;;;;;;;;5049714;28;20594;-76
2021/01/28 07:10:03;;;;;;;7.78;4.07;;;;;;;;;;5049234;28;20025;-78
2021/01/28 07:12:40;;;;;;;8.27;3.85;;;;;;;;;;5049733;28;20029;-72
2021/01/28 07:15:06;;;;;;;8.45;4.57;;;;;;;;;;5047772;28;20070;-77
2021/01/28 07:17:36;;;;;;;8.05;3.75;;;;;;;;;;5050768;28;20074;-78
2021/01/28 07:20:04;;;;;;;8.68;3.80;;;;;;;;;;5042876;28;20040;-78
2021/01/28 07:22:30;;;;;;;7.80;4.10;;;;;;;;;;5049874;28;20468;-76
2021/01/28 07:24:56;;;;;;;5.75;3.70;;;;;;;;;;5050775;28;20390;-76
2021/01/28 07:27:42;;;;;;;6.68;3.70;;;;;;;;;;5049406;28;20036;-78
2021/01/28 07:30:29;;;;;;;6.40;3.80;;;;;;;;;;5049656;28;20025;-73
2021/01/28 07:32:55;;;;;;;8.68;3.95;;;;;;;;;;5050910;28;20113;-78
2021/01/28 07:35:29;;;;;;;18.10;4.72;;;;;;;;;;5049222;28;20051;-73
2021/01/28 07:37:56;;;;;;;10.10;4.18;;;;;;;;;;5051081;28;20350;-71
2021/01/28 07:40:41;;;;;;;7.15;3.97;;;;;;;;;;5050851;28;20457;-73
2021/01/28 07:43:08;;;;;;;9.65;4.07;;;;;;;;;;5049846;28;20051;-75
2021/01/28 07:45:36;;;;;;;11.20;4.40;;;;;;;;;;5050800;28;20079;-74
2021/01/28 07:48:03;;;;;;;6.45;4.13;;;;;;;;;;5050923;28;20037;-73
2021/01/28 07:50:31;;;;;;;7.13;4.55;;;;;;;;;;5050831;28;20017;-75
2021/01/28 07:52:58;;;;;;;6.90;4.40;;;;;;;;;;5050902;28;20029;-74
2021/01/28 07:55:43;;;;;;;9.93;4.68;;;;;;;;;;5053722;28;20091;-74
2021/01/28 07:58:18;;;;;;;6.65;4.10;;;;;;;;;;5037885;28;20021;-74
2021/01/28 08:00:45;;;;;;;9.00;4.78;;;;;;;;;;5052441;28;20029;-72
2021/01/28 08:03:20;;;;;;;8.68;4.60;;;;;;;;;;5052616;28;20033;-71
2021/01/28 08:05:49;;;;;;;7.32;4.53;;;;;;;;;;5051696;28;20095;-71
2021/01/28 08:08:19;;;;;;;6.90;4.25;;;;;;;;;;5052916;28;20025;-70
2021/01/28 08:10:46;;;;;;;7.30;4.50;;;;;;;;;;5032673;28;20030;-69
2021/01/28 08:13:27;;;;;;;10.27;4.60;;;;;;;;;;5031460;28;20480;-73
2021/01/28 08:15:59;;;;;;;8.63;4.30;;;;;;;;;;5031795;28;20111;-73
2021/01/28 08:18:25;;;;;;;7.13;3.95;;;;;;;;;;5031957;28;20811;-76
2021/01/28 08:21:02;;;;;;;10.20;4.43;;;;;;;;;;5033033;28;20044;-75
2021/01/28 08:23:28;;;;;;;10.65;4.32;;;;;;;;;;5032368;28;20024;-81
2021/01/28 08:25:55;;;;;;;9.57;4.70;;;;;;;;;;5032887;28;20029;-82
2021/01/28 08:28:21;;;;;;;7.63;4.15;;;;;;;;;;5034342;28;20018;-84
2021/01/28 08:30:47;;;;;;;11.25;4.82;;;;;;;;;;5034881;28;20029;-83
2021/01/28 08:33:24;;;;;;;11.30;5.32;;;;;;;;;;5033427;28;20451;-79
2021/01/28 08:35:53;;;;;;;9.05;4.70;;;;;;;;;;5033016;28;20029;-71
2021/01/28 08:38:28;;;;;;;8.27;4.78;;;;;;;;;;5032430;28;20026;-70
2021/01/28 08:41:03;;;;;;;8.20;4.85;;;;;;;;;;5033996;28;20063;-76
2021/01/28 08:43:29;;;;;;;12.10;4.78;;;;;;;;;;5033876;28;20176;-79
2021/01/28 08:46:03;;;;;;;8.15;4.60;;;;;;;;;;5033737;28;20095;-77
2021/01/28 08:48:29;;;;;;;7.20;4.25;;;;;;;;;;5032384;28;20049;-80
2021/01/28 08:51:02;;;;;;;10.98;4.60;;;;;;;;;;5033975;28;20025;-80
2021/01/28 08:53:28;;;;;;;8.65;5.07;;;;;;;;;;5032582;28;20125;-80
2021/01/28 08:56:03;;;;;;;11.23;4.95;;;;;;;;;;5032416;28;20036;-84
2021/01/28 08:58:34;;;;;;;9.20;4.40;;;;;;;;;;5032271;28;20040;-82
2021/01/28 09:01:01;;;;;;;9.93;4.18;;;;;;;;;;5032351;28;20068;-70
2021/01/28 09:03:40;;;;;;;11.30;4.20;;;;;;;;;;5033274;28;20028;-75
2021/01/28 09:06:07;;;;;;;9.55;4.22;;;;;;;;;;5032588;28;20064;-76
2021/01/28 09:08:33;;;;;;;6.60;3.97;;;;;;;;;;5035607;28;20469;-72
2021/01/28 09:11:23;;;;;;;8.90;4.18;;;;;;;;;;5052025;28;20029;-73
2021/01/28 09:14:08;;;;;;;8.45;4.30;;;;;;;;;;5053233;28;20021;-73
2021/01/28 09:16:34;;;;;;;8.68;3.83;;;;;;;;;;5051770;28;20120;-73
2021/01/28 09:19:29;;;;;;;7.47;3.58;;;;;;;;;;5052908;28;20021;-73
2021/01/28 09:21:58;;;;;;;6.68;3.55;;;;;;;;;;5048389;28;20029;-74
2021/01/28 09:24:33;;;;;;;8.40;3.53;;;;;;;;;;5051664;28;20052;-73
2021/01/28 09:27:26;;;;;;;9.20;3.97;;;;;;;;;;5052944;28;20025;-77
2021/01/28 09:29:53;;;;;;;5.82;3.33;;;;;;;;;;5050720;28;20040;-79
2021/01/28 09:32:19;;;;;;;6.43;3.72;;;;;;;;;;5051673;28;20025;-78
2021/01/28 09:34:45;;;;;;;7.00;3.53;;;;;;;;;;5051797;28;20056;-76
2021/01/28 09:37:16;;;;;;;9.88;3.40;;;;;;;;;;5051861;28;20028;-69
2021/01/28 09:39:46;;;;;;;7.07;3.70;;;;;;;;;;5051179;28;20392;-73
2021/01/28 09:42:28;;;;;;;7.20;3.00;;;;;;;;;;5051392;28;20062;-72
2021/01/28 09:44:54;;;;;;;6.63;3.67;;;;;;;;;;5052474;28;20074;-74
2021/01/28 09:47:26;;;;;;;6.70;3.53;;;;;;;;;;5050984;28;20170;-74
2021/01/28 09:49:55;;;;;;;8.02;3.65;;;;;;;;;;5052821;28;20435;-73
2021/01/28 09:52:25;;;;;;;6.97;3.38;;;;;;;;;;5052758;28;20028;-72
2021/01/28 09:55:11;;;;;;;7.78;3.78;;;;;;;;;;5052425;28;20020;-74
2021/01/28 09:57:37;;;;;;;6.78;3.90;;;;;;;;;;5050648;28;20095;-73
2021/01/28 10:00:05;;;;;;;7.53;4.10;;;;;;;;;;5052334;28;20399;-74
2021/01/28 10:02:52;;;;;;;9.02;4.80;;;;;;;;;;5051069;28;20029;-74
2021/01/28 10:05:20;;;;;;;7.28;4.30;;;;;;;;;;5050965;28;20021;-75
2021/01/28 10:07:47;;;;;;;8.00;4.40;;;;;;;;;;5050872;28;20025;-76
2021/01/28 10:10:14;;;;;;;10.82;4.10;;;;;;;;;;5034582;28;20037;-73
2021/01/28 10:12:40;;;;;;;7.93;4.40;;;;;;;;;;5032299;28;20009;-76
2021/01/28 10:15:06;;;;;;;8.55;4.35;;;;;;;;;;5030928;28;20048;-73
2021/01/28 10:17:32;;;;;;;8.07;4.72;;;;;;;;;;5030818;28;20025;-74
2021/01/28 10:19:58;;;;;;;9.95;5.32;;;;;;;;;;5032083;28;20061;-70
2021/01/28 10:22:25;;;;;;;6.97;4.18;;;;;;;;;;5031924;28;20021;-69
2021/01/28 10:24:51;;;;;;;10.05;4.53;;;;;;;;;;5030820;28;20025;-67
2021/01/28 10:27:17;;;;;;;11.55;4.38;;;;;;;;;;5031999;28;20029;-74
2021/01/28 10:29:44;;;;;;;8.52;4.93;;;;;;;;;;5031966;28;20056;-74
2021/01/28 10:32:15;;;;;;;9.45;5.13;;;;;;;;;;5030495;28;20373;-73
2021/01/28 10:34:41;;;;;;;13.13;4.57;;;;;;;;;;5031695;28;20026;-70
2021/01/28 10:37:07;;;;;;;10.38;4.57;;;;;;;;;;5031745;28;20047;-68
2021/01/28 10:39:34;;;;;;;8.30;4.85;;;;;;;;;;5031627;28;20095;-72
2021/01/28 10:42:00;;;;;;;8.05;4.60;;;;;;;;;;5030820;28;20033;-72
2021/01/28 10:44:26;;;;;;;9.88;5.22;;;;;;;;;;5030387;28;20025;-70
2021/01/28 10:46:52;;;;;;;8.52;4.35;;;;;;;;;;5031520;28;20048;-71
2021/01/28 10:49:18;;;;;;;14.05;5.00;;;;;;;;;;5031424;28;20354;-71
2021/01/28 10:51:46;;;;;;;7.63;4.55;;;;;;;;;;5031476;28;20021;-73
2021/01/28 10:54:12;;;;;;;9.98;5.20;;;;;;;;;;5031570;28;20116;-72
2021/01/28 10:56:38;;;;;;;8.48;4.90;;;;;;;;;;5030235;28;20057;-72
2021/01/28 10:59:04;;;;;;;7.18;4.57;;;;;;;;;;5031272;28;20033;-72
2021/01/28 11:01:31;;;;;;;6.65;3.83;;;;;;;;;;5031163;28;20025;-72
2021/01/28 11:03:57;;;;;;;7.55;4.22;;;;;;;;;;5031268;28;20087;-76
2021/01/28 11:06:23;;;;;;;8.90;4.47;;;;;;;;;;5030001;28;20056;-72
2021/01/28 11:08:49;;;;;;;9.40;4.35;;;;;;;;;;5035700;28;20018;-72
2021/01/28 11:11:16;;;;;;;8.63;4.43;;;;;;;;;;5051222;28;20075;-71
2021/01/28 11:13:42;;;;;;;7.15;4.07;;;;;;;;;;5051122;28;20021;-72
2021/01/28 11:16:09;;;;;;;6.70;4.20;;;;;;;;;;5051203;28;20087;-71
2021/01/28 11:18:35;;;;;;;7.18;4.13;;;;;;;;;;5050904;28;20025;-71
2021/01/28 11:21:01;;;;;;;7.60;4.45;;;;;;;;;;5051060;28;20025;-71
2021/01/28 11:23:27;;;;;;;10.80;4.25;;;;;;;;;;5050955;28;20104;-71
2021/01/28 11:25:53;;;;;;;10.20;3.67;;;;;;;;;;5050907;28;20045;-70
2021/01/28 11:28:19;;;;;;;6.50;3.50;;;;;;;;;;5052187;28;20096;-69
2021/01/28 11:30:45;;;;;;;6.80;3.78;;;;;;;;;;5053772;28;20021;-68
2021/01/28 11:33:12;;;;;;;7.63;3.80;;;;;;;;;;5055084;28;20017;-77
2021/01/28 11:35:38;;;;;;;6.70;3.35;;;;;;;;;;5055244;28;20032;-70
2021/01/28 11:38:05;;;;;;;6.85;3.90;;;;;;;;;;5054968;28;20104;-72
2021/01/28 11:40:32;;;;;;;6.65;3.33;;;;;;;;;;5053295;28;20079;-67
2021/01/28 11:42:58;;;;;;;6.75;3.45;;;;;;;;;;5054838;28;20036;-72
2021/01/28 11:45:26;;;;;;;6.93;3.15;;;;;;;;;;5053262;28;20025;-71
2021/01/28 11:47:52;;;;;;;6.40;3.63;;;;;;;;;;5054506;28;20041;-71
2021/01/28 11:50:18;;;;;;;7.07;3.60;;;;;;;;;;5055221;28;20025;-70
2021/01/28 11:52:44;;;;;;;7.85;4.03;;;;;;;;;;5053510;28;20025;-74
2021/01/28 11:55:14;;;;;;;8.68;3.88;;;;;;;;;;5054728;28;20020;-73
2021/01/28 11:57:40;;;;;;;8.05;3.50;;;;;;;;;;5035207;28;20030;-74
2021/01/28 12:00:07;;;;;;;7.53;3.72;;;;;;;;;;5034627;28;20092;-74
2021/01/28 12:02:33;;;;;;;8.50;3.80;;;;;;;;;;5034747;28;20048;-72
2021/01/28 12:04:59;;;;;;;7.00;3.40;;;;;;;;;;5034783;28;20411;-71
2021/01/28 12:07:25;;;;;;;6.72;3.40;;;;;;;;;;5033434;28;20388;-72
2021/01/28 12:09:51;;;;;;;7.47;2.70;;;;;;;;;;5034505;28;20389;-71
2021/01/28 12:12:17;;;;;;;8.50;3.13;;;;;;;;;;5034389;28;20032;-74
2021/01/28 12:14:43;;;;;;;6.30;2.90;;;;;;;;;;5032632;28;20116;-72
2021/01/28 12:17:09;;;;;;;4.90;2.30;;;;;;;;;;5032811;28;20427;-76
2021/01/28 12:19:35;;;;;;;6.30;2.50;;;;;;;;;;5032853;28;20088;-75
2021/01/28 12:22:01;;;;;;;6.45;2.63;;;;;;;;;;5034310;28;20032;-75
2021/01/28 12:24:30;;;;;;;6.40;2.63;;;;;;;;;;5032959;28;20108;-72
2021/01/28 12:26:58;;;;;;;6.47;2.90;;;;;;;;;;5033029;28;20032;-74
2021/01/28 12:29:25;;;;;;;6.68;2.80;;;;;;;;;;5034054;28;20061;-77
2021/01/28 12:31:51;;;;;;;4.93;2.72;;;;;;;;;;5033120;28;20029;-78
2021/01/28 12:34:18;;;;;;;8.02;2.33;;;;;;;;;;5034139;28;20079;-74
2021/01/28 12:36:44;;;;;;;6.45;2.67;;;;;;;;;;5034218;28;20029;-73
2021/01/28 12:39:10;;;;;;;6.25;3.00;;;;;;;;;;5033213;28;20527;-70
2021/01/28 12:41:36;;;;;;;9.23;2.50;;;;;;;;;;5033392;28;20079;-78
2021/01/28 12:44:02;;;;;;;4.88;2.20;;;;;;;;;;5032498;28;20022;-73
2021/01/28 12:46:28;;;;;;;4.63;2.40;;;;;;;;;;5033575;28;20034;-77
2021/01/28 12:48:54;;;;;;;4.88;2.40;;;;;;;;;;5033945;28;20021;-79
2021/01/28 12:51:20;;;;;;;5.75;2.08;;;;;;;;;;5033730;28;20412;-74
2021/01/28 12:53:46;;;;;;;5.85;2.55;;;;;;;;;;5033826;28;20420;-75
2021/01/28 12:56:12;;;;;;;8.68;2.88;;;;;;;;;;5033756;28;20040;-74
2021/01/28 12:58:38;;;;;;;6.88;3.13;;;;;;;;;;5033573;28;20384;-70
2021/01/28 13:01:04;;;;;;;5.93;2.85;;;;;;;;;;5032395;28;20362;-69
2021/01/28 13:03:31;;;;;;;5.68;2.88;;;;;;;;;;5033493;28;20041;-72
2021/01/28 13:05:57;;;;;;;8.13;3.10;;;;;;;;;;5033387;28;20374;-70
2021/01/28 13:08:24;;;;;;;6.03;2.90;;;;;;;;;;5034268;28;20021;-70
2021/01/28 13:10:50;;;;;;;6.78;3.20;;;;;;;;;;5052119;28;20116;-71
2021/01/28 13:13:16;;;;;;;7.38;3.28;;;;;;;;;;5053443;28;20028;-71
2021/01/28 13:15:42;;;;;;;6.07;2.67;;;;;;;;;;5053257;28;20027;-76
2021/01/28 13:18:08;;;;;;;6.70;3.80;;;;;;;;;;5053286;28;20358;-76
2021/01/28 13:20:35;;;;;;;7.28;3.67;;;;;;;;;;5053106;28;20037;-71
2021/01/28 13:23:01;;;;;;;7.00;3.78;;;;;;;;;;5051757;28;20662;-70
2021/01/28 13:25:27;;;;;;;8.27;4.53;;;;;;;;;;5052773;28;20074;-75
2021/01/28 13:27:53;;;;;;;9.23;3.90;;;;;;;;;;5053003;28;20422;-74
2021/01/28 13:30:21;;;;;;;8.77;5.07;;;;;;;;;;5053067;28;20028;-73
2021/01/28 13:32:47;;;;;;;12.48;5.50;;;;;;;;;;5053039;28;20028;-74
2021/01/28 13:35:17;;;;;;;10.32;6.05;;;;;;;;;;5052801;28;20159;-76
2021/01/28 13:37:43;;;;;;;12.70;7.30;;;;;;;;;;5052728;28;20021;-73
2021/01/28 13:40:10;;;;;;;11.43;6.47;;;;;;;;;;5052574;28;20059;-80
2021/01/28 13:42:36;;;;;;;9.18;5.97;;;;;;;;;;5052523;28;20017;-77
2021/01/28 13:45:03;;;;;;;11.10;4.72;;;;;;;;;;5051341;28;20017;-76
2021/01/28 13:47:29;;;;;;;11.40;5.57;;;;;;;;;;5051038;28;20037;-74
2021/01/28 13:49:55;;;;;;;12.15;6.43;;;;;;;;;;5052681;28;20028;-75
2021/01/28 13:52:21;;;;;;;12.30;5.97;;;;;;;;;;5052249;28;20028;-76
2021/01/28 13:54:47;;;;;;;8.77;5.47;;;;;;;;;;5052401;28;20029;-75
2021/01/28 13:57:13;;;;;;;13.18;8.05;;;;;;;;;;5051093;28;20045;-71
2021/01/28 13:59:39;;;;;;;14.27;7.53;;;;;;;;;;5051866;28;20033;-75
2021/01/28 14:02:06;;;;;;;13.93;7.35;;;;;;;;;;5052177;28;20053;-74
2021/01/28 14:04:33;;;;;;;11.55;7.45;;;;;;;;;;5052292;28;20422;-76
2021/01/28 14:07:00;;;;;;;12.55;7.30;;;;;;;;;;5052446;28;20051;-73
2021/01/28 14:09:26;;;;;;;15.27;6.47;;;;;;;;;;5042510;28;20048;-74
2021/01/28 14:11:53;;;;;;;17.20;7.20;;;;;;;;;;5032217;28;20053;-77
2021/01/28 14:14:19;;;;;;;13.25;7.65;;;;;;;;;;5032300;28;20017;-77
2021/01/28 14:16:45;;;;;;;11.38;7.00;;;;;;;;;;5032226;28;20041;-78
2021/01/28 14:19:11;;;;;;;12.90;7.57;;;;;;;;;;5032145;28;20037;-80
2021/01/28 14:21:37;;;;;;;13.18;7.00;;;;;;;;;;5030720;28;20103;-76
2021/01/28 14:24:03;;;;;;;14.10;6.93;;;;;;;;;;5030813;28;20029;-74
2021/01/28 14:26:29;;;;;;;15.40;6.72;;;;;;;;;;5031631;28;20056;-75
2021/01/28 14:28:55;;;;;;;17.45;7.38;;;;;;;;;;5031999;28;20026;-75
2021/01/28 14:31:21;;;;;;;12.80;6.45;;;;;;;;;;5030761;28;20177;-78
2021/01/28 14:33:47;;;;;;;12.55;6.43;;;;;;;;;;5030615;28;20075;-77
2021/01/28 14:36:13;;;;;;;14.20;7.80;;;;;;;;;;5031852;28;20049;-75
2021/01/28 14:38:39;;;;;;;13.82;8.00;;;;;;;;;;5031709;28;20030;-75
2021/01/28 14:41:05;;;;;;;13.95;7.45;;;;;;;;;;5031794;28;20033;-75
2021/01/28 14:43:31;;;;;;;12.98;6.43;;;;;;;;;;5032683;28;20021;-77
2021/01/28 14:45:57;;;;;;;15.48;7.65;;;;;;;;;;5031804;28;20503;-76
2021/01/28 14:48:23;;;;;;;12.32;7.32;;;;;;;;;;5032044;28;20482;-75
2021/01/28 14:50:49;;;;;;;13.20;7.03;;;;;;;;;;5031579;28;20022;-74